createdAt,value
2018-07-30T00:00:14.603Z,3.00
2018-07-30T00:02:42.163Z,2.50
2018-07-30T00:05:09.754Z,3.23
2018-07-30T00:07:37.313Z,3.17
2018-07-30T00:10:04.868Z,2.83
2018-07-30T00:12:32.467Z,2.77
2018-07-30T00:15:00.793Z,3.20
2018-07-30T00:17:28.344Z,3.10
2018-07-30T00:19:55.931Z,3.20
2018-07-30T00:22:23.492Z,3.07
2018-07-30T00:24:51.056Z,3.40
2018-07-30T00:27:18.642Z,3.80
2018-07-30T00:29:46.206Z,3.10
2018-07-30T00:32:13.765Z,2.90
2018-07-30T00:34:42.147Z,3.10
2018-07-30T00:37:09.714Z,3.37
2018-07-30T00:39:37.268Z,3.30
2018-07-30T00:42:04.863Z,3.23
2018-07-30T00:44:32.445Z,3.10
2018-07-30T00:46:59.976Z,3.00
2018-07-30T00:49:27.555Z,3.00
2018-07-30T00:51:55.113Z,2.73
2018-07-30T00:54:22.680Z,2.97
2018-07-30T00:56:50.792Z,3.13
2018-07-30T00:59:18.330Z,2.77
2018-07-30T01:01:45.888Z,3.27
2018-07-30T01:04:13.487Z,2.63
2018-07-30T01:06:41.048Z,3.03
2018-07-30T01:09:08.605Z,3.23
2018-07-30T01:11:36.215Z,3.30
2018-07-30T01:14:03.771Z,2.80
2018-07-30T01:16:31.325Z,2.90
2018-07-30T01:18:58.919Z,3.70
2018-07-30T01:21:26.468Z,2.90
2018-07-30T01:23:54.020Z,3.40
2018-07-30T01:26:21.613Z,3.20
2018-07-30T01:28:49.171Z,3.30
2018-07-30T01:31:16.731Z,3.70
2018-07-30T01:33:44.323Z,3.00
2018-07-30T01:36:11.880Z,2.93
2018-07-30T01:38:39.446Z,3.00
2018-07-30T01:41:07.809Z,3.67
2018-07-30T01:43:35.370Z,3.43
2018-07-30T01:46:02.933Z,4.03
2018-07-30T01:48:30.519Z,3.77
2018-07-30T01:50:58.080Z,3.10
2018-07-30T01:53:25.637Z,3.40
2018-07-30T01:55:53.996Z,3.33
2018-07-30T01:58:21.556Z,3.73
2018-07-30T02:00:49.110Z,3.77
2018-07-30T02:03:16.729Z,3.50
2018-07-30T02:05:44.292Z,4.10
2018-07-30T02:08:11.848Z,4.07
2018-07-30T02:10:39.442Z,3.67
2018-07-30T02:13:07.007Z,4.30
2018-07-30T02:15:34.559Z,3.97
2018-07-30T02:18:02.154Z,3.50
2018-07-30T02:20:29.706Z,3.47
2018-07-30T02:22:57.272Z,3.50
2018-07-30T02:25:25.721Z,3.85
2018-07-30T02:27:53.277Z,3.97
2018-07-30T02:30:20.833Z,3.63
2018-07-30T02:32:48.432Z,3.70
2018-07-30T02:35:15.988Z,4.27
2018-07-30T02:37:43.541Z,4.10
2018-07-30T02:40:11.133Z,3.67
2018-07-30T02:42:38.689Z,4.40
2018-07-30T02:45:06.258Z,3.60
2018-07-30T02:47:33.847Z,3.43
2018-07-30T02:50:01.405Z,4.23
2018-07-30T02:52:28.959Z,3.90
2018-07-30T02:54:56.554Z,3.60
2018-07-30T02:57:24.111Z,4.47
2018-07-30T02:59:51.666Z,3.97
2018-07-30T03:02:19.259Z,4.20
2018-07-30T03:04:46.816Z,4.23
2018-07-30T03:07:14.376Z,4.57
2018-07-30T03:09:41.988Z,4.20
2018-07-30T03:12:09.545Z,3.70
2018-07-30T03:14:37.866Z,4.03
2018-07-30T03:17:05.456Z,4.30
2018-07-30T03:19:33.016Z,4.53
2018-07-30T03:22:00.581Z,4.72
2018-07-30T03:24:28.173Z,4.90
2018-07-30T03:26:55.729Z,4.00
2018-07-30T03:29:23.287Z,4.07
2018-07-30T03:31:51.414Z,3.83
2018-07-30T03:34:18.966Z,3.83
2018-07-30T03:36:46.524Z,4.50
2018-07-30T03:39:14.127Z,3.90
2018-07-30T03:41:42.060Z,3.67
2018-07-30T03:44:09.618Z,3.77
2018-07-30T03:46:37.212Z,4.27
2018-07-30T03:49:04.766Z,4.07
2018-07-30T03:51:32.319Z,4.43
2018-07-30T03:54:00.483Z,4.20
2018-07-30T03:56:28.045Z,4.85
2018-07-30T03:58:55.595Z,4.60
2018-07-30T04:01:23.185Z,5.07
2018-07-30T04:03:50.735Z,4.40
2018-07-30T04:06:18.328Z,4.10
2018-07-30T04:08:45.885Z,4.97
2018-07-30T04:11:14.216Z,5.07
2018-07-30T04:13:41.777Z,4.70
2018-07-30T04:16:09.394Z,4.20
2018-07-30T04:18:37.720Z,4.37
2018-07-30T04:21:05.283Z,4.20
2018-07-30T04:23:32.872Z,4.70
2018-07-30T04:26:00.431Z,4.40
2018-07-30T04:28:28.000Z,5.13
2018-07-30T04:30:55.607Z,5.03
2018-07-30T04:33:23.142Z,4.43
2018-07-30T04:35:50.705Z,5.03
2018-07-30T04:38:19.081Z,4.60
2018-07-30T04:40:47.406Z,4.33
2018-07-30T04:43:14.965Z,4.17
2018-07-30T04:45:42.552Z,4.57
2018-07-30T04:48:10.107Z,4.13
2018-07-30T04:50:37.666Z,5.00
2018-07-30T04:53:05.731Z,4.87
2018-07-30T04:55:33.279Z,4.13
2018-07-30T04:58:00.832Z,4.17
2018-07-30T05:00:28.819Z,4.43
2018-07-30T05:02:56.391Z,4.80
2018-07-30T05:05:23.954Z,4.90
2018-07-30T05:07:51.544Z,5.33
2018-07-30T05:10:19.098Z,6.10
2018-07-30T05:12:46.661Z,6.20
2018-07-30T05:15:14.254Z,5.17
2018-07-30T05:17:41.817Z,4.80
2018-07-30T05:20:09.372Z,5.17
2018-07-30T05:22:36.973Z,5.40
2018-07-30T05:25:04.538Z,6.50
2018-07-30T05:27:32.104Z,5.97
2018-07-30T05:29:59.695Z,6.28
2018-07-30T05:32:27.254Z,6.63
2018-07-30T05:34:54.807Z,6.50
2018-07-30T05:37:22.591Z,6.27
2018-07-30T05:39:49.998Z,6.17
2018-07-30T05:42:17.561Z,6.13
2018-07-30T05:44:45.163Z,6.17
2018-07-30T05:47:13.487Z,5.50
2018-07-30T05:49:41.048Z,5.97
2018-07-30T05:52:09.040Z,6.00
2018-07-30T05:54:36.607Z,6.13
2018-07-30T05:57:04.165Z,6.82
2018-07-30T05:59:32.159Z,5.83
2018-07-30T06:01:59.715Z,5.90
2018-07-30T06:04:27.243Z,5.70
2018-07-30T06:06:55.730Z,5.53
2018-07-30T06:09:23.287Z,6.83
2018-07-30T06:11:50.845Z,6.33
2018-07-30T06:14:19.343Z,7.13
2018-07-30T06:16:46.896Z,6.60
2018-07-30T06:19:14.462Z,6.13
2018-07-30T06:21:42.100Z,6.20
2018-07-30T06:24:09.664Z,6.87
2018-07-30T06:26:37.224Z,6.70
2018-07-30T06:29:05.317Z,6.20
2018-07-30T06:31:32.879Z,6.80
2018-07-30T06:34:00.447Z,6.70
2018-07-30T06:36:28.058Z,6.77
2018-07-30T06:38:55.616Z,6.40
2018-07-30T06:41:23.213Z,5.80
2018-07-30T06:43:51.588Z,6.77
2018-07-30T06:46:19.148Z,6.00
2018-07-30T06:48:46.709Z,6.97
2018-07-30T06:51:14.310Z,6.40
2018-07-30T06:53:41.870Z,7.17
2018-07-30T06:56:09.432Z,6.87
2018-07-30T06:58:37.039Z,6.77
2018-07-30T07:01:04.598Z,7.40
2018-07-30T07:03:32.164Z,7.07
2018-07-30T07:05:59.796Z,6.33
2018-07-30T07:08:28.125Z,6.33
2018-07-30T07:10:55.733Z,5.17
2018-07-30T07:13:23.982Z,5.47
2018-07-30T07:15:51.537Z,5.67
2018-07-30T07:18:19.101Z,6.47
2018-07-30T07:20:46.732Z,5.57
2018-07-30T07:23:15.037Z,6.60
2018-07-30T07:25:42.588Z,6.50
2018-07-30T07:28:10.187Z,5.47
2018-07-30T07:30:37.747Z,5.73
2018-07-30T07:33:05.329Z,5.30
2018-07-30T07:35:34.076Z,5.63
2018-07-30T07:38:01.628Z,5.03
2018-07-30T07:40:29.199Z,4.97
2018-07-30T07:42:56.804Z,5.63
2018-07-30T07:45:25.136Z,6.10
2018-07-30T07:47:52.698Z,5.53
2018-07-30T07:50:20.444Z,5.60
2018-07-30T07:52:48.634Z,4.80
2018-07-30T07:55:16.207Z,5.17
2018-07-30T07:57:43.816Z,4.90
2018-07-30T08:00:12.145Z,4.23
2018-07-30T08:02:39.705Z,4.33
2018-07-30T08:05:08.053Z,4.95
2018-07-30T08:07:35.560Z,4.57
2018-07-30T08:10:03.117Z,4.43
2018-07-30T08:12:30.727Z,4.60
2018-07-30T08:14:58.281Z,4.77
2018-07-30T08:17:25.841Z,4.17
2018-07-30T08:19:53.854Z,4.90
2018-07-30T08:22:21.449Z,4.57
2018-07-30T08:24:48.973Z,4.30
2018-07-30T08:27:16.577Z,4.37
2018-07-30T08:29:44.912Z,4.60
2018-07-30T08:32:12.499Z,4.20
2018-07-30T08:34:40.068Z,4.23
2018-07-30T08:37:07.631Z,3.90
2018-07-30T08:39:35.199Z,3.43
2018-07-30T08:42:03.566Z,4.23
2018-07-30T08:44:32.470Z,4.00
2018-07-30T08:47:00.024Z,3.50
2018-07-30T08:49:28.373Z,3.77
2018-07-30T08:51:55.923Z,4.00
2018-07-30T08:54:23.484Z,3.70
2018-07-30T08:56:51.850Z,3.70
2018-07-30T08:59:19.410Z,3.63
2018-07-30T09:01:46.963Z,3.30
2018-07-30T09:04:14.595Z,3.33
2018-07-30T09:06:42.923Z,3.00
2018-07-30T09:09:10.478Z,2.93
2018-07-30T09:11:38.108Z,2.73
2018-07-30T09:14:06.428Z,2.90
2018-07-30T09:16:33.991Z,3.27
2018-07-30T09:19:01.592Z,3.00
2018-07-30T09:21:29.148Z,2.90
2018-07-30T09:23:56.703Z,2.83
2018-07-30T09:26:24.311Z,3.50
2018-07-30T09:28:51.874Z,2.87
2018-07-30T09:31:19.432Z,2.67
2018-07-30T09:33:47.029Z,3.13
2018-07-30T09:36:14.589Z,3.07
2018-07-30T09:38:42.189Z,2.70
2018-07-30T09:41:10.455Z,2.80
2018-07-30T09:43:38.003Z,2.83
2018-07-30T09:46:05.561Z,3.20
2018-07-30T09:48:33.213Z,3.40
2018-07-30T09:51:00.768Z,3.40
2018-07-30T09:53:28.319Z,2.80
2018-07-30T09:55:55.918Z,2.83
2018-07-30T09:58:23.491Z,2.60
2018-07-30T10:00:51.030Z,2.78
2018-07-30T10:03:19.147Z,3.20
2018-07-30T10:05:46.703Z,2.63
2018-07-30T10:08:15.332Z,2.37
2018-07-30T10:10:42.949Z,2.77
2018-07-30T10:13:11.267Z,2.73
2018-07-30T10:15:38.831Z,2.47
2018-07-30T10:18:06.487Z,3.00
2018-07-30T10:20:33.978Z,2.73
2018-07-30T10:23:01.540Z,2.60
2018-07-30T10:25:29.178Z,3.05
2018-07-30T10:27:56.733Z,3.00
2018-07-30T10:30:24.287Z,3.30
2018-07-30T10:32:51.893Z,2.70
2018-07-30T10:35:19.444Z,3.00
2018-07-30T10:37:46.997Z,2.90
2018-07-30T10:40:14.753Z,3.12
2018-07-30T10:42:42.313Z,2.93
2018-07-30T10:45:09.865Z,2.70
2018-07-30T10:47:37.461Z,2.83
2018-07-30T10:50:05.024Z,3.10
2018-07-30T10:52:32.576Z,2.60
2018-07-30T10:55:00.198Z,3.17
2018-07-30T10:57:27.751Z,3.22
2018-07-30T10:59:55.307Z,3.10
2018-07-30T11:02:23.618Z,2.70
2018-07-30T11:04:51.175Z,3.00
2018-07-30T11:07:18.728Z,2.90
2018-07-30T11:09:46.772Z,3.03
2018-07-30T11:12:14.267Z,3.10
2018-07-30T11:14:41.871Z,2.80
2018-07-30T11:17:09.424Z,2.80
2018-07-30T11:19:36.985Z,3.00
2018-07-30T11:22:04.544Z,2.93
2018-07-30T11:24:32.158Z,2.57
2018-07-30T11:26:59.713Z,2.70
2018-07-30T11:29:27.272Z,2.80
2018-07-30T11:31:54.875Z,3.03
2018-07-30T11:34:22.440Z,3.00
2018-07-30T11:36:49.999Z,3.12
2018-07-30T11:39:17.609Z,2.92
2018-07-30T11:41:45.160Z,2.70
2018-07-30T11:44:13.482Z,2.90
2018-07-30T11:46:41.105Z,2.80
2018-07-30T11:49:09.421Z,2.90
2018-07-30T11:51:36.973Z,3.60
2018-07-30T11:54:04.603Z,2.63
2018-07-30T11:56:32.137Z,2.97
2018-07-30T11:58:59.692Z,2.77
2018-07-30T12:01:27.828Z,2.93
2018-07-30T12:03:55.217Z,3.23
2018-07-30T12:06:22.774Z,3.10
2018-07-30T12:08:50.410Z,3.20
2018-07-30T12:11:17.922Z,3.00
2018-07-30T12:13:45.476Z,2.93
2018-07-30T12:16:13.087Z,3.10
2018-07-30T12:18:40.643Z,2.70
2018-07-30T12:21:08.234Z,2.87
2018-07-30T12:23:35.819Z,3.30
2018-07-30T12:26:03.350Z,3.03
2018-07-30T12:28:30.901Z,3.03
2018-07-30T12:30:59.294Z,3.43
2018-07-30T12:33:26.850Z,3.10
2018-07-30T12:35:54.408Z,2.80
2018-07-30T12:38:22.035Z,3.00
2018-07-30T12:40:50.357Z,2.90
2018-07-30T12:43:17.910Z,3.63
2018-07-30T12:45:45.986Z,2.83
2018-07-30T12:48:13.539Z,3.03
2018-07-30T12:50:41.097Z,2.80
2018-07-30T12:53:08.695Z,2.93
2018-07-30T12:55:36.251Z,3.50
2018-07-30T12:58:03.802Z,2.83
2018-07-30T13:00:31.401Z,3.10
2018-07-30T13:02:59.803Z,2.60
2018-07-30T13:05:27.270Z,2.93
2018-07-30T13:07:54.873Z,3.30
2018-07-30T13:10:22.423Z,2.67
2018-07-30T13:12:49.977Z,3.17
2018-07-30T13:15:18.566Z,2.90
2018-07-30T13:17:46.124Z,2.93
2018-07-30T13:20:13.679Z,3.00
2018-07-30T13:22:41.658Z,2.70
2018-07-30T13:25:09.205Z,3.00
2018-07-30T13:27:36.763Z,2.70
2018-07-30T13:30:04.403Z,2.93
2018-07-30T13:32:31.986Z,3.40
2018-07-30T13:35:00.280Z,2.93
2018-07-30T13:37:27.923Z,3.00
2018-07-30T13:39:56.201Z,2.80
2018-07-30T13:42:23.753Z,3.10
2018-07-30T13:44:52.145Z,2.87
2018-07-30T13:47:19.695Z,3.07
2018-07-30T13:49:47.243Z,2.77
2018-07-30T13:52:14.873Z,3.20
2018-07-30T13:54:42.423Z,3.00
2018-07-30T13:57:09.979Z,2.67
2018-07-30T13:59:37.579Z,3.33
2018-07-30T14:02:05.901Z,3.28
2018-07-30T14:04:33.457Z,3.17
2018-07-30T14:07:01.077Z,3.27
2018-07-30T14:09:28.609Z,2.67
2018-07-30T14:11:56.166Z,3.20
2018-07-30T14:14:23.762Z,2.87
2018-07-30T14:16:52.112Z,2.80
2018-07-30T14:19:19.639Z,2.50
2018-07-30T14:21:47.253Z,2.60
2018-07-30T14:24:14.805Z,2.80
2018-07-30T14:26:42.357Z,2.90
2018-07-30T14:29:10.326Z,2.70
2018-07-30T14:31:37.884Z,2.65
2018-07-30T14:34:05.430Z,2.97
2018-07-30T14:36:33.136Z,2.47
2018-07-30T14:39:00.615Z,2.43
2018-07-30T14:41:28.182Z,2.40
2018-07-30T14:43:55.774Z,2.40
2018-07-30T14:46:23.319Z,2.30
2018-07-30T14:48:50.871Z,2.90
2018-07-30T14:51:18.476Z,2.50
2018-07-30T14:53:46.276Z,2.73
2018-07-30T14:56:14.591Z,2.43
2018-07-30T14:58:42.574Z,2.73
2018-07-30T15:01:10.125Z,2.70
2018-07-30T15:03:37.689Z,2.70
2018-07-30T15:06:05.318Z,2.63
2018-07-30T15:08:32.848Z,2.53
2018-07-30T15:11:00.404Z,2.80
2018-07-30T15:13:28.034Z,3.03
2018-07-30T15:15:55.585Z,2.80
2018-07-30T15:18:23.137Z,3.10
2018-07-30T15:20:50.740Z,2.63
2018-07-30T15:23:18.300Z,2.43
2018-07-30T15:25:45.867Z,2.73
2018-07-30T15:28:13.820Z,2.53
2018-07-30T15:30:41.377Z,2.70
2018-07-30T15:33:08.928Z,2.93
2018-07-30T15:35:37.421Z,2.70
2018-07-30T15:38:04.981Z,2.70
2018-07-30T15:40:32.574Z,2.90
2018-07-30T15:43:00.609Z,2.40
2018-07-30T15:45:28.168Z,2.70
2018-07-30T15:47:55.727Z,2.93
2018-07-30T15:50:23.355Z,2.93
2018-07-30T15:52:51.679Z,2.70
2018-07-30T15:55:19.247Z,2.50
2018-07-30T15:57:47.820Z,2.60
2018-07-30T16:00:15.375Z,2.60
2018-07-30T16:02:42.926Z,3.03
2018-07-30T16:05:10.576Z,2.47
2018-07-30T16:07:38.123Z,2.90
2018-07-30T16:10:06.457Z,2.30
2018-07-30T16:12:34.090Z,2.90
2018-07-30T16:15:01.651Z,2.60
2018-07-30T16:17:29.258Z,3.30
2018-07-30T16:19:56.962Z,2.60
2018-07-30T16:22:24.525Z,2.77
2018-07-30T16:24:52.196Z,2.90
2018-07-30T16:27:19.833Z,2.80
2018-07-30T16:29:48.158Z,2.30
2018-07-30T16:32:15.709Z,2.50
2018-07-30T16:34:43.312Z,2.50
2018-07-30T16:37:10.869Z,2.67
2018-07-30T16:39:38.424Z,2.50
2018-07-30T16:42:06.039Z,2.47
2018-07-30T16:44:33.611Z,2.70
2018-07-30T16:47:01.499Z,2.77
2018-07-30T16:49:29.007Z,2.50
2018-07-30T16:51:57.330Z,2.72
2018-07-30T16:54:24.886Z,2.20
2018-07-30T16:56:52.531Z,2.60
2018-07-30T16:59:20.060Z,2.60
2018-07-30T17:01:48.378Z,2.80
2018-07-30T17:04:15.981Z,2.83
2018-07-30T17:06:43.534Z,2.77
2018-07-30T17:09:11.096Z,2.50
2018-07-30T17:11:38.737Z,2.72
2018-07-30T17:14:07.458Z,2.80
2018-07-30T17:16:33.826Z,2.60
2018-07-30T17:19:02.051Z,2.75
2018-07-30T17:21:29.607Z,2.60
2018-07-30T17:23:57.163Z,2.70
2018-07-30T17:26:24.817Z,2.50
2018-07-30T17:28:53.103Z,2.63
2018-07-30T17:31:20.696Z,2.75
2018-07-30T17:33:51.590Z,2.97
2018-07-30T17:36:25.227Z,2.70
2018-07-30T17:38:52.870Z,2.57
2018-07-30T17:41:21.151Z,2.60
2018-07-30T17:43:48.710Z,2.57
2018-07-30T17:46:21.142Z,2.90
2018-07-30T17:48:47.217Z,2.73
2018-07-30T17:51:14.779Z,2.67
2018-07-30T17:53:42.414Z,2.77
2018-07-30T17:56:09.993Z,3.20
2018-07-30T17:58:37.537Z,2.77
2018-07-30T18:01:05.837Z,2.80
2018-07-30T18:03:33.413Z,2.80
2018-07-30T18:06:00.969Z,2.83
2018-07-30T18:08:28.567Z,2.50
2018-07-30T18:10:56.922Z,3.00
2018-07-30T18:13:24.431Z,2.80
2018-07-30T18:15:52.032Z,2.77
2018-07-30T18:18:19.582Z,3.00
2018-07-30T18:20:47.143Z,2.53
2018-07-30T18:23:14.748Z,2.60
2018-07-30T18:25:43.064Z,2.10
2018-07-30T18:28:10.626Z,3.37
2018-07-30T18:30:38.279Z,2.23
2018-07-30T18:33:05.805Z,2.40
2018-07-30T18:35:33.350Z,2.80
2018-07-30T18:38:00.976Z,2.63
2018-07-30T18:40:28.550Z,2.90
2018-07-30T18:42:56.568Z,2.80
2018-07-30T18:45:24.202Z,2.30
2018-07-30T18:47:51.757Z,2.55
2018-07-30T18:50:19.313Z,2.50
2018-07-30T18:52:49.580Z,2.63
2018-07-30T18:55:17.128Z,2.80
2018-07-30T18:57:44.730Z,2.57
2018-07-30T19:00:12.933Z,5.10
2018-07-30T19:02:40.491Z,2.63
2018-07-30T19:05:08.057Z,2.40
2018-07-30T19:07:35.657Z,2.77
2018-07-30T19:10:03.984Z,3.10
2018-07-30T19:12:31.542Z,2.90
2018-07-30T19:14:59.145Z,2.83
2018-07-30T19:17:26.703Z,3.27
2018-07-30T19:19:54.295Z,3.43
2018-07-30T19:22:22.351Z,3.15
2018-07-30T19:24:49.867Z,3.20
2018-07-30T19:27:17.453Z,2.70
2018-07-30T19:29:45.500Z,2.50
2018-07-30T19:32:13.065Z,2.77
2018-07-30T19:34:40.618Z,2.40
2018-07-30T19:37:08.568Z,2.80
2018-07-30T19:39:36.146Z,2.90
2018-07-30T19:42:03.707Z,3.10
2018-07-30T19:44:31.325Z,2.63
2018-07-30T19:46:58.879Z,3.30
2018-07-30T19:49:26.433Z,2.77
2018-07-30T19:51:54.030Z,2.80
2018-07-30T19:54:21.594Z,3.15
2018-07-30T19:56:49.172Z,2.30
2018-07-30T19:59:16.878Z,2.80
2018-07-30T20:01:44.467Z,2.70
2018-07-30T20:04:12.858Z,2.43
2018-07-30T20:06:41.129Z,2.93
2018-07-30T20:09:09.443Z,2.80
2018-07-30T20:11:37.014Z,2.70
2018-07-30T20:14:04.609Z,2.87
2018-07-30T20:16:32.937Z,3.10
2018-07-30T20:19:00.494Z,2.90
2018-07-30T20:21:28.444Z,2.83
2018-07-30T20:23:55.964Z,3.00
2018-07-30T20:26:23.526Z,3.33
2018-07-30T20:28:51.129Z,2.97
2018-07-30T20:31:18.692Z,3.00
2018-07-30T20:33:46.251Z,2.90
2018-07-30T20:36:13.863Z,2.97
2018-07-30T20:38:41.423Z,3.97
2018-07-30T20:41:08.985Z,3.57
2018-07-30T20:43:37.572Z,3.20
2018-07-30T20:46:05.134Z,2.97
2018-07-30T20:48:32.693Z,3.07
2018-07-30T20:51:00.329Z,2.97
2018-07-30T20:53:27.879Z,2.83
2018-07-30T20:55:55.437Z,3.67
2018-07-30T20:58:23.537Z,3.13
2018-07-30T21:00:51.096Z,3.23
2018-07-30T21:03:18.650Z,2.90
2018-07-30T21:05:47.080Z,3.00
2018-07-30T21:08:14.635Z,3.33
2018-07-30T21:10:42.958Z,3.23
2018-07-30T21:13:10.559Z,2.97
2018-07-30T21:15:38.136Z,2.97
2018-07-30T21:18:05.692Z,3.40
2018-07-30T21:20:33.758Z,3.40
2018-07-30T21:23:01.319Z,3.87
2018-07-30T21:25:28.877Z,3.75
2018-07-30T21:27:56.508Z,3.20
2018-07-30T21:30:24.113Z,3.30
2018-07-30T21:32:51.640Z,3.37
2018-07-30T21:35:19.258Z,3.20
2018-07-30T21:37:46.820Z,2.93
2018-07-30T21:40:14.375Z,2.90
2018-07-30T21:42:43.310Z,3.80
2018-07-30T21:45:10.889Z,3.10
2018-07-30T21:47:38.447Z,3.30
2018-07-30T21:50:06.047Z,3.78
2018-07-30T21:52:34.381Z,3.67
2018-07-30T21:55:01.946Z,3.47
2018-07-30T21:57:29.554Z,3.40
2018-07-30T21:59:57.878Z,4.07
2018-07-30T22:02:25.436Z,3.70
2018-07-30T22:04:53.023Z,3.70
2018-07-30T22:07:20.584Z,3.33
2018-07-30T22:09:48.145Z,3.40
2018-07-30T22:12:15.745Z,3.53
2018-07-30T22:14:44.062Z,3.90
2018-07-30T22:17:11.618Z,3.80
2018-07-30T22:19:39.233Z,4.10
2018-07-30T22:22:07.561Z,3.47
2018-07-30T22:24:35.122Z,3.60
2018-07-30T22:27:02.717Z,3.70
2018-07-30T22:29:30.274Z,3.30
2018-07-30T22:31:57.843Z,4.00
2018-07-30T22:34:25.444Z,4.20
2018-07-30T22:36:52.994Z,4.32
2018-07-30T22:39:20.554Z,3.70
2018-07-30T22:41:49.244Z,3.67
2018-07-30T22:44:16.796Z,3.47
2018-07-30T22:46:45.149Z,3.80
2018-07-30T22:49:12.710Z,3.67
2018-07-30T22:51:40.260Z,3.70
2018-07-30T22:54:07.821Z,4.17
2018-07-30T22:56:35.418Z,3.93
2018-07-30T22:59:03.752Z,4.20
2018-07-30T23:01:31.323Z,3.90
2018-07-30T23:03:59.388Z,3.97
2018-07-30T23:06:26.939Z,4.07
2018-07-30T23:08:54.511Z,3.60
2018-07-30T23:11:22.096Z,4.27
2018-07-30T23:13:49.719Z,3.83
2018-07-30T23:16:17.988Z,3.43
2018-07-30T23:18:45.583Z,4.30
2018-07-30T23:21:13.137Z,4.03
2018-07-30T23:23:40.691Z,3.80
2018-07-30T23:26:08.310Z,4.35
2018-07-30T23:28:35.871Z,3.77
2018-07-30T23:31:03.436Z,4.33
2018-07-30T23:33:31.036Z,4.33
2018-07-30T23:35:58.605Z,4.20
2018-07-30T23:38:26.158Z,4.47
2018-07-30T23:40:53.746Z,3.90
2018-07-30T23:43:22.076Z,4.13
2018-07-30T23:45:49.627Z,4.23
2018-07-30T23:48:17.241Z,4.10
2018-07-30T23:50:44.800Z,3.90
2018-07-30T23:53:12.357Z,3.80
2018-07-30T23:55:39.950Z,3.87
2018-07-30T23:58:08.270Z,3.87
